Time;durP1;ratioP1;P1;durP2;ratioP2;P2;SDS_P1;SDS_P2;PMS_P1;PMS_P2;Temp;Humidity;BMP_temperature;BMP_pressure;BME280_temperature;BME280_humidity;BME280_pressure;Samples;Min_cycle;Max_cycle;Signal;HPM_P1;HPM_P2
2022/07/28 00:00:59;;;;;;;7.00;2.25;;;;;;;;;;5032326;28;20026;-71
2022/07/28 00:03:25;;;;;;;6.10;2.05;;;;;;;;;;5031618;28;20025;-71
2022/07/28 00:05:52;;;;;;;5.00;2.42;;;;;;;;;;5032539;28;20063;-71
2022/07/28 00:08:18;;;;;;;2.72;2.15;;;;;;;;;;5035339;28;20064;-70
2022/07/28 00:10:44;;;;;;;4.28;2.40;;;;;;;;;;5033074;28;20033;-70
2022/07/28 00:13:10;;;;;;;3.33;2.40;;;;;;;;;;5036509;28;20025;-70
2022/07/28 00:15:36;;;;;;;4.05;2.20;;;;;;;;;;5036199;28;20379;-71
2022/07/28 00:18:03;;;;;;;6.20;2.47;;;;;;;;;;5033679;28;20029;-70
2022/07/28 00:20:30;;;;;;;2.85;2.20;;;;;;;;;;5019214;28;20116;-71
2022/07/28 00:22:56;;;;;;;3.08;2.38;;;;;;;;;;5035851;28;20041;-71
2022/07/28 00:25:22;;;;;;;4.50;2.45;;;;;;;;;;5032517;28;20033;-71
2022/07/28 00:27:48;;;;;;;3.50;2.28;;;;;;;;;;5032204;28;20064;-70
2022/07/28 00:30:15;;;;;;;7.00;3.10;;;;;;;;;;5016760;28;20364;-70
2022/07/28 00:32:41;;;;;;;4.00;2.40;;;;;;;;;;5029125;28;20037;-71
2022/07/28 00:35:07;;;;;;;3.58;2.10;;;;;;;;;;5034524;28;20374;-71
2022/07/28 00:37:33;;;;;;;3.88;2.30;;;;;;;;;;5031782;28;20045;-71
2022/07/28 00:39:59;;;;;;;3.55;2.30;;;;;;;;;;5039678;28;20017;-69
2022/07/28 00:42:26;;;;;;;4.45;2.30;;;;;;;;;;5033032;28;20028;-70
2022/07/28 00:44:52;;;;;;;3.65;2.13;;;;;;;;;;5032621;28;20474;-70
2022/07/28 00:47:18;;;;;;;5.88;2.22;;;;;;;;;;5039099;28;20041;-71
2022/07/28 00:49:45;;;;;;;5.07;2.33;;;;;;;;;;5032447;28;20025;-71
2022/07/28 00:52:11;;;;;;;3.08;2.33;;;;;;;;;;5037410;28;20018;-70
2022/07/28 00:54:38;;;;;;;3.92;2.40;;;;;;;;;;5014334;28;20075;-71
2022/07/28 00:57:04;;;;;;;3.75;2.40;;;;;;;;;;5030240;28;20022;-71
2022/07/28 00:59:31;;;;;;;2.60;2.20;;;;;;;;;;5032000;28;20041;-71
2022/07/28 01:01:57;;;;;;;3.72;2.30;;;;;;;;;;5031044;28;20487;-70
2022/07/28 01:04:24;;;;;;;3.75;2.38;;;;;;;;;;5031724;28;20064;-69
2022/07/28 01:07:07;;;;;;;3.45;2.42;;;;;;;;;;5031600;28;20449;-70
2022/07/28 01:09:37;;;;;;;4.15;2.40;;;;;;;;;;5026682;28;20033;-70
2022/07/28 01:12:18;;;;;;;3.53;2.55;;;;;;;;;;5035511;28;21925;-69
2022/07/28 01:14:48;;;;;;;3.80;2.50;;;;;;;;;;5042892;28;20033;-70
2022/07/28 01:17:31;;;;;;;6.28;2.33;;;;;;;;;;5042392;28;20493;-70
2022/07/28 01:20:04;;;;;;;4.57;2.17;;;;;;;;;;5034661;28;20073;-70
2022/07/28 01:22:33;;;;;;;5.07;2.20;;;;;;;;;;5034249;28;20057;-71
2022/07/28 01:25:22;;;;;;;3.83;2.50;;;;;;;;;;5032784;28;20029;-70
2022/07/28 01:27:48;;;;;;;4.28;2.58;;;;;;;;;;5034453;28;20042;-71
2022/07/28 01:30:27;;;;;;;4.80;2.60;;;;;;;;;;5036999;28;20105;-70
2022/07/28 01:33:02;;;;;;;16.98;10.73;;;;;;;;;;5017352;28;20029;-72
2022/07/28 01:35:36;;;;;;;13.52;8.82;;;;;;;;;;5033368;28;20070;-70
2022/07/28 01:38:05;;;;;;;6.68;5.10;;;;;;;;;;5035880;28;20068;-71
2022/07/28 01:40:33;;;;;;;7.85;3.75;;;;;;;;;;5034561;28;20024;-71
2022/07/28 01:43:00;;;;;;;4.63;2.92;;;;;;;;;;5017105;28;20384;-71
2022/07/28 01:45:27;;;;;;;5.15;3.00;;;;;;;;;;5036209;28;20044;-70
2022/07/28 01:47:55;;;;;;;6.97;2.80;;;;;;;;;;5038021;28;20061;-70
2022/07/28 01:50:22;;;;;;;9.60;3.10;;;;;;;;;;5030348;28;20064;-71
2022/07/28 01:52:49;;;;;;;6.60;3.20;;;;;;;;;;5033567;28;20076;-70
2022/07/28 01:55:17;;;;;;;4.65;3.10;;;;;;;;;;5035262;28;20022;-71
2022/07/28 01:57:45;;;;;;;6.00;3.13;;;;;;;;;;5036808;28;20560;-71
2022/07/28 02:00:13;;;;;;;4.88;2.75;;;;;;;;;;5033396;28;20475;-71
2022/07/28 02:02:40;;;;;;;7.80;3.00;;;;;;;;;;5035804;28;20028;-71
2022/07/28 02:05:06;;;;;;;5.10;3.25;;;;;;;;;;5040361;28;20049;-70
2022/07/28 02:07:33;;;;;;;7.90;3.58;;;;;;;;;;5037517;28;20049;-69
2022/07/28 02:10:00;;;;;;;5.70;3.17;;;;;;;;;;5048537;28;20068;-72
2022/07/28 02:12:27;;;;;;;7.68;3.20;;;;;;;;;;5036522;28;20025;-70
2022/07/28 02:14:54;;;;;;;7.70;3.20;;;;;;;;;;5035218;28;20092;-70
2022/07/28 02:17:24;;;;;;;5.35;3.20;;;;;;;;;;5020039;28;20037;-70
2022/07/28 02:19:52;;;;;;;7.22;3.70;;;;;;;;;;5035187;28;20088;-69
2022/07/28 02:22:19;;;;;;;6.50;3.58;;;;;;;;;;5037894;28;20426;-71
2022/07/28 02:24:46;;;;;;;7.40;3.65;;;;;;;;;;5016099;28;20125;-71
2022/07/28 02:27:18;;;;;;;6.32;3.50;;;;;;;;;;5034876;28;20061;-71
2022/07/28 02:29:55;;;;;;;3.92;3.30;;;;;;;;;;5027000;28;20075;-71
2022/07/28 02:32:26;;;;;;;7.32;4.05;;;;;;;;;;5033905;28;20033;-71
2022/07/28 02:34:52;;;;;;;6.97;3.58;;;;;;;;;;5033746;28;20104;-71
2022/07/28 02:37:19;;;;;;;6.47;3.78;;;;;;;;;;5037672;28;20051;-71
2022/07/28 02:39:48;;;;;;;6.22;3.70;;;;;;;;;;5046645;28;20429;-71
2022/07/28 02:42:19;;;;;;;9.13;4.20;;;;;;;;;;5041634;28;20071;-71
2022/07/28 02:44:58;;;;;;;5.68;3.60;;;;;;;;;;5035871;28;20037;-70
2022/07/28 02:47:25;;;;;;;6.72;3.45;;;;;;;;;;5034882;28;20040;-70
2022/07/28 02:49:51;;;;;;;4.85;3.65;;;;;;;;;;5041699;28;20103;-69
2022/07/28 02:52:18;;;;;;;10.88;3.78;;;;;;;;;;5033292;28;20049;-71
2022/07/28 02:54:45;;;;;;;7.03;3.45;;;;;;;;;;5033855;28;20018;-70
2022/07/28 02:57:12;;;;;;;6.05;3.65;;;;;;;;;;5034049;28;20038;-70
2022/07/28 02:59:39;;;;;;;6.07;3.55;;;;;;;;;;5027440;28;20401;-71
2022/07/28 03:02:06;;;;;;;7.63;3.50;;;;;;;;;;5038839;28;20034;-70
2022/07/28 03:07:17;;;;;;;7.97;3.63;;;;;;;;;;5034556;28;20052;-71
2022/07/28 03:09:45;;;;;;;6.40;3.88;;;;;;;;;;5033186;28;20025;-71
2022/07/28 03:12:11;;;;;;;6.07;3.72;;;;;;;;;;5033036;28;20478;-71
2022/07/28 03:14:40;;;;;;;6.25;3.50;;;;;;;;;;5034424;28;20463;-70
2022/07/28 03:17:07;;;;;;;5.97;3.60;;;;;;;;;;5015201;28;20025;-70
2022/07/28 03:19:33;;;;;;;6.85;3.78;;;;;;;;;;5033905;28;20475;-70
2022/07/28 03:21:59;;;;;;;6.80;3.60;;;;;;;;;;5036726;28;20032;-69
2022/07/28 03:24:27;;;;;;;10.30;3.88;;;;;;;;;;5033218;28;20474;-70
2022/07/28 03:27:14;;;;;;;5.95;3.80;;;;;;;;;;5032968;28;20042;-70
2022/07/28 03:29:41;;;;;;;6.22;3.80;;;;;;;;;;5036666;28;20052;-70
2022/07/28 03:32:08;;;;;;;9.13;4.22;;;;;;;;;;5015722;28;20421;-70
2022/07/28 03:34:34;;;;;;;5.78;3.80;;;;;;;;;;5032628;28;20387;-70
2022/07/28 03:37:02;;;;;;;6.45;3.92;;;;;;;;;;5032990;28;20537;-71
2022/07/28 03:39:29;;;;;;;7.13;4.25;;;;;;;;;;5034101;28;20083;-71
2022/07/28 03:41:57;;;;;;;8.20;4.03;;;;;;;;;;5033264;28;20025;-69
2022/07/28 03:44:24;;;;;;;9.18;4.45;;;;;;;;;;5040432;28;20017;-71
2022/07/28 03:46:50;;;;;;;10.90;4.35;;;;;;;;;;5035905;28;20034;-70
2022/07/28 03:49:16;;;;;;;7.47;3.95;;;;;;;;;;5033112;28;20022;-70
2022/07/28 03:51:42;;;;;;;11.80;4.00;;;;;;;;;;5033101;28;20036;-71
2022/07/28 03:54:08;;;;;;;10.45;4.07;;;;;;;;;;5033539;28;20424;-69
2022/07/28 03:56:34;;;;;;;10.20;4.03;;;;;;;;;;5036808;28;20017;-71
2022/07/28 03:59:00;;;;;;;8.80;4.70;;;;;;;;;;5031766;28;20148;-70
2022/07/28 04:01:26;;;;;;;9.32;5.43;;;;;;;;;;5035475;28;20029;-71
2022/07/28 04:03:52;;;;;;;10.80;5.22;;;;;;;;;;5036912;28;20026;-71
2022/07/28 04:06:19;;;;;;;6.85;4.30;;;;;;;;;;5034363;28;20144;-70
2022/07/28 04:08:45;;;;;;;10.23;4.80;;;;;;;;;;5032701;28;20037;-71
2022/07/28 04:11:11;;;;;;;11.15;4.63;;;;;;;;;;5035676;28;20024;-71
2022/07/28 04:13:37;;;;;;;6.80;4.10;;;;;;;;;;5034427;28;20022;-70
2022/07/28 04:16:04;;;;;;;11.77;4.60;;;;;;;;;;5028570;28;20825;-71
2022/07/28 04:18:46;;;;;;;11.02;4.93;;;;;;;;;;5030270;28;20034;-71
2022/07/28 04:21:15;;;;;;;7.60;4.25;;;;;;;;;;5018205;28;20038;-72
2022/07/28 04:23:41;;;;;;;15.05;5.50;;;;;;;;;;5019850;28;20096;-69
2022/07/28 04:26:07;;;;;;;16.08;4.82;;;;;;;;;;5044844;28;20486;-72
2022/07/28 04:28:33;;;;;;;9.27;4.22;;;;;;;;;;5032191;28;20029;-70
2022/07/28 04:30:59;;;;;;;14.82;4.95;;;;;;;;;;5036800;28;20076;-69
2022/07/28 04:33:25;;;;;;;9.73;4.30;;;;;;;;;;5035298;28;20053;-70
2022/07/28 04:35:52;;;;;;;12.20;5.00;;;;;;;;;;5033962;28;20029;-71
2022/07/28 04:38:19;;;;;;;17.98;5.38;;;;;;;;;;5040845;28;20073;-69
2022/07/28 04:40:46;;;;;;;7.65;4.18;;;;;;;;;;5032248;28;20048;-70
2022/07/28 04:43:13;;;;;;;9.63;4.72;;;;;;;;;;5032256;28;20030;-70
2022/07/28 04:45:39;;;;;;;10.18;4.50;;;;;;;;;;5031352;28;20028;-69
2022/07/28 04:48:14;;;;;;;12.45;5.70;;;;;;;;;;5022302;28;20069;-72
2022/07/28 04:50:41;;;;;;;10.48;5.97;;;;;;;;;;5014001;28;20018;-72
2022/07/28 04:53:07;;;;;;;11.48;5.10;;;;;;;;;;5029138;28;20037;-77
2022/07/28 04:55:37;;;;;;;10.75;4.95;;;;;;;;;;5012781;28;20059;-73
2022/07/28 04:58:04;;;;;;;10.57;4.68;;;;;;;;;;5040528;28;20051;-76
2022/07/28 05:00:30;;;;;;;9.95;5.30;;;;;;;;;;5052366;28;20025;-79
2022/07/28 05:03:01;;;;;;;11.13;5.32;;;;;;;;;;5045876;28;20057;-76
2022/07/28 05:05:27;;;;;;;11.73;5.80;;;;;;;;;;5012506;28;20029;-70
2022/07/28 05:07:53;;;;;;;10.55;5.13;;;;;;;;;;5016206;28;20045;-71
2022/07/28 05:10:31;;;;;;;12.60;5.18;;;;;;;;;;5031025;28;20100;-69
2022/07/28 05:13:33;;;;;;;40.28;16.95;;;;;;;;;;5040210;28;20065;-74
2022/07/28 05:15:59;;;;;;;16.02;6.65;;;;;;;;;;4949832;28;20039;-70
2022/07/28 05:18:25;;;;;;;13.40;6.95;;;;;;;;;;4951369;28;20143;-70
2022/07/28 05:20:56;;;;;;;33.13;9.00;;;;;;;;;;4951303;28;20163;-71
2022/07/28 05:23:28;;;;;;;25.60;8.10;;;;;;;;;;4946145;28;20035;-75
2022/07/28 05:25:54;;;;;;;16.23;6.97;;;;;;;;;;4948754;29;20036;-73
2022/07/28 05:28:20;;;;;;;16.60;6.90;;;;;;;;;;4949997;28;20050;-73
2022/07/28 05:30:47;;;;;;;19.60;7.97;;;;;;;;;;4950307;28;20200;-74
2022/07/28 05:33:16;;;;;;;19.63;7.65;;;;;;;;;;4948905;28;20038;-70
2022/07/28 05:35:43;;;;;;;16.33;8.20;;;;;;;;;;4950368;28;20402;-69
2022/07/28 05:38:09;;;;;;;18.85;8.23;;;;;;;;;;4951782;28;20043;-69
2022/07/28 05:40:36;;;;;;;20.50;7.57;;;;;;;;;;4942437;28;20126;-68
2022/07/28 05:43:02;;;;;;;21.92;8.85;;;;;;;;;;4951235;28;20031;-70
2022/07/28 05:45:28;;;;;;;17.40;7.78;;;;;;;;;;4951525;28;20038;-70
2022/07/28 05:47:54;;;;;;;14.45;8.23;;;;;;;;;;4951250;28;20046;-77
2022/07/28 05:50:29;;;;;;;18.35;8.63;;;;;;;;;;4952083;28;20106;-72
2022/07/28 05:52:55;;;;;;;22.63;9.07;;;;;;;;;;5005541;28;20490;-75
2022/07/28 05:55:21;;;;;;;16.75;8.25;;;;;;;;;;5031207;28;20022;-73
2022/07/28 05:57:47;;;;;;;16.90;8.20;;;;;;;;;;5030909;28;20506;-73
2022/07/28 06:00:15;;;;;;;27.30;9.82;;;;;;;;;;5013397;28;20479;-76
2022/07/28 06:02:44;;;;;;;17.92;8.88;;;;;;;;;;5033673;28;20021;-73
2022/07/28 06:05:13;;;;;;;17.05;7.43;;;;;;;;;;5033047;28;20112;-75
2022/07/28 06:07:39;;;;;;;19.00;8.55;;;;;;;;;;5028963;28;20045;-73
2022/07/28 06:10:06;;;;;;;14.68;7.60;;;;;;;;;;5012969;28;20029;-73
2022/07/28 06:12:32;;;;;;;11.18;6.53;;;;;;;;;;5035247;28;20075;-72
2022/07/28 06:15:01;;;;;;;13.82;7.18;;;;;;;;;;5019682;28;20467;-72
2022/07/28 06:17:27;;;;;;;14.43;7.72;;;;;;;;;;5035497;28;20030;-73
2022/07/28 06:19:53;;;;;;;14.07;6.88;;;;;;;;;;5045005;28;20029;-71
2022/07/28 06:22:19;;;;;;;15.63;7.63;;;;;;;;;;5035562;28;20423;-73
2022/07/28 06:24:45;;;;;;;12.85;7.35;;;;;;;;;;5034266;28;20108;-73
2022/07/28 06:27:11;;;;;;;13.90;7.15;;;;;;;;;;5035704;28;20430;-73
2022/07/28 06:29:37;;;;;;;13.40;6.95;;;;;;;;;;5031943;28;20090;-69
2022/07/28 06:32:03;;;;;;;14.38;6.90;;;;;;;;;;5033688;28;20034;-72
2022/07/28 06:34:29;;;;;;;11.65;6.50;;;;;;;;;;5039550;28;20387;-73
2022/07/28 06:36:55;;;;;;;15.25;6.45;;;;;;;;;;5036556;28;20395;-67
2022/07/28 06:39:21;;;;;;;18.60;6.68;;;;;;;;;;5031403;28;20478;-68
2022/07/28 06:41:47;;;;;;;14.07;6.82;;;;;;;;;;5032731;28;20037;-68
2022/07/28 06:44:13;;;;;;;15.40;6.28;;;;;;;;;;5033216;28;20088;-68
2022/07/28 06:46:39;;;;;;;15.32;6.35;;;;;;;;;;5034366;28;20475;-68
2022/07/28 06:49:05;;;;;;;13.50;6.18;;;;;;;;;;5033437;28;20475;-68
2022/07/28 06:51:31;;;;;;;12.77;7.20;;;;;;;;;;5033699;28;20025;-68
2022/07/28 06:53:59;;;;;;;14.48;7.25;;;;;;;;;;5034413;28;20120;-68
2022/07/28 06:56:25;;;;;;;19.20;7.22;;;;;;;;;;5034281;28;20058;-68
2022/07/28 06:58:51;;;;;;;12.48;6.88;;;;;;;;;;5018186;28;20060;-69
2022/07/28 07:01:17;;;;;;;15.70;7.22;;;;;;;;;;5033471;28;20051;-68
2022/07/28 07:03:43;;;;;;;14.98;7.50;;;;;;;;;;5034384;28;20026;-69
2022/07/28 07:06:09;;;;;;;16.52;6.60;;;;;;;;;;5034182;28;20026;-68
2022/07/28 07:08:36;;;;;;;10.90;6.50;;;;;;;;;;5033954;28;20045;-68
2022/07/28 07:11:02;;;;;;;15.43;6.35;;;;;;;;;;5032989;28;20025;-68
2022/07/28 07:13:28;;;;;;;12.63;6.50;;;;;;;;;;5033684;28;20037;-67
2022/07/28 07:15:55;;;;;;;17.65;6.72;;;;;;;;;;5033974;28;20026;-69
2022/07/28 07:18:22;;;;;;;13.05;6.22;;;;;;;;;;5033090;28;20052;-67
2022/07/28 07:20:48;;;;;;;17.80;6.18;;;;;;;;;;5034145;28;20061;-67
2022/07/28 07:23:14;;;;;;;12.82;5.30;;;;;;;;;;5032786;28;20021;-68
2022/07/28 07:25:40;;;;;;;8.98;6.05;;;;;;;;;;5033698;28;20418;-67
2022/07/28 07:28:07;;;;;;;13.82;5.32;;;;;;;;;;5030389;28;20064;-69
2022/07/28 07:30:33;;;;;;;9.85;5.55;;;;;;;;;;5034456;28;20053;-79
2022/07/28 07:32:59;;;;;;;10.55;5.30;;;;;;;;;;5015125;28;20037;-76
2022/07/28 07:35:25;;;;;;;10.85;5.75;;;;;;;;;;5015649;28;20109;-76
2022/07/28 07:37:51;;;;;;;15.85;5.97;;;;;;;;;;5033823;28;20715;-69
2022/07/28 07:40:18;;;;;;;11.60;6.00;;;;;;;;;;5031815;28;20112;-73
2022/07/28 07:42:56;;;;;;;11.18;5.72;;;;;;;;;;5011080;28;20533;-72
2022/07/28 07:45:25;;;;;;;9.50;5.50;;;;;;;;;;5036565;28;20555;-70
2022/07/28 07:47:52;;;;;;;13.98;5.75;;;;;;;;;;5020138;28;20053;-72
2022/07/28 07:50:18;;;;;;;11.48;6.15;;;;;;;;;;5033544;28;20018;-72
2022/07/28 07:52:44;;;;;;;8.35;5.72;;;;;;;;;;5036036;28;20036;-85
2022/07/28 07:55:10;;;;;;;13.65;5.88;;;;;;;;;;5024082;28;20037;-85
2022/07/28 07:57:36;;;;;;;9.70;5.95;;;;;;;;;;5031978;28;20438;-81
2022/07/28 08:00:02;;;;;;;13.45;5.55;;;;;;;;;;5032653;28;20069;-80
2022/07/28 08:02:29;;;;;;;11.23;5.57;;;;;;;;;;5031663;28;20421;-72
2022/07/28 08:04:59;;;;;;;9.68;5.50;;;;;;;;;;5032728;28;20033;-69
2022/07/28 08:07:25;;;;;;;12.45;5.68;;;;;;;;;;5033399;28;20475;-70
2022/07/28 08:09:51;;;;;;;8.77;5.70;;;;;;;;;;5033341;28;20040;-69
2022/07/28 08:12:17;;;;;;;10.73;5.78;;;;;;;;;;5038008;28;20029;-69
2022/07/28 08:14:46;;;;;;;8.80;5.85;;;;;;;;;;5031074;28;20041;-69
2022/07/28 08:17:13;;;;;;;10.77;5.75;;;;;;;;;;5012967;28;20467;-71
2022/07/28 08:19:39;;;;;;;11.40;6.80;;;;;;;;;;5035022;28;20120;-68
2022/07/28 08:22:18;;;;;;;13.65;6.43;;;;;;;;;;5031539;28;20025;-72
2022/07/28 08:24:47;;;;;;;11.27;6.35;;;;;;;;;;5026218;28;20079;-73
2022/07/28 08:27:26;;;;;;;16.75;7.78;;;;;;;;;;5031091;28;20033;-71
2022/07/28 08:30:00;;;;;;;12.55;6.45;;;;;;;;;;5027878;28;20120;-70
2022/07/28 08:32:47;;;;;;;14.68;7.20;;;;;;;;;;5028070;28;20065;-71
2022/07/28 08:35:13;;;;;;;10.05;6.80;;;;;;;;;;5011261;28;20030;-70
2022/07/28 08:37:39;;;;;;;11.75;6.60;;;;;;;;;;5031953;28;20111;-69
2022/07/28 08:40:17;;;;;;;14.85;7.40;;;;;;;;;;5028936;28;20121;-71
2022/07/28 08:43:02;;;;;;;194.57;155.95;;;;;;;;;;5021946;28;20064;-70
2022/07/28 08:45:30;;;;;;;24.42;13.48;;;;;;;;;;5031689;28;20128;-70
2022/07/28 08:47:56;;;;;;;13.93;7.43;;;;;;;;;;5030703;28;20034;-68
2022/07/28 08:50:33;;;;;;;18.60;7.85;;;;;;;;;;5027595;28;20040;-69
2022/07/28 08:53:13;;;;;;;15.55;7.20;;;;;;;;;;5030533;28;20036;-71
2022/07/28 08:55:44;;;;;;;12.48;6.68;;;;;;;;;;5012395;28;20604;-71
2022/07/28 08:58:11;;;;;;;15.60;6.93;;;;;;;;;;5028224;28;20040;-68
2022/07/28 09:00:37;;;;;;;15.52;6.95;;;;;;;;;;5026579;28;20469;-81
2022/07/28 09:03:04;;;;;;;16.17;6.95;;;;;;;;;;5033638;28;20021;-74
2022/07/28 09:05:31;;;;;;;18.15;6.72;;;;;;;;;;5028152;28;20422;-76
2022/07/28 09:07:58;;;;;;;13.90;6.40;;;;;;;;;;5032954;28;20510;-81
2022/07/28 09:10:24;;;;;;;13.68;6.50;;;;;;;;;;5032561;28;20025;-81
2022/07/28 09:12:50;;;;;;;13.25;6.75;;;;;;;;;;5030876;28;20033;-87
2022/07/28 09:15:16;;;;;;;13.13;6.20;;;;;;;;;;5030431;28;20075;-75
2022/07/28 09:17:43;;;;;;;11.98;6.47;;;;;;;;;;5030581;28;20471;-72
2022/07/28 09:20:10;;;;;;;12.00;6.97;;;;;;;;;;5017150;28;20052;-81
2022/07/28 09:22:53;;;;;;;16.05;8.15;;;;;;;;;;5014244;28;20037;-77
2022/07/28 09:25:19;;;;;;;13.57;7.97;;;;;;;;;;5012262;28;20079;-76
2022/07/28 09:27:45;;;;;;;14.60;7.63;;;;;;;;;;5033300;28;20037;-79
2022/07/28 09:30:12;;;;;;;16.50;7.30;;;;;;;;;;5031385;28;20535;-75
2022/07/28 09:32:38;;;;;;;10.07;6.95;;;;;;;;;;5031380;28;21047;-82
2022/07/28 09:35:17;;;;;;;15.02;7.00;;;;;;;;;;5035429;28;20032;-83
2022/07/28 09:37:43;;;;;;;15.75;7.82;;;;;;;;;;5034162;28;20053;-76
2022/07/28 09:40:10;;;;;;;15.20;7.40;;;;;;;;;;5028426;28;20022;-76
2022/07/28 09:42:46;;;;;;;20.02;7.88;;;;;;;;;;5028508;28;20382;-75
2022/07/28 09:45:12;;;;;;;16.17;7.32;;;;;;;;;;5028148;28;20028;-71
2022/07/28 09:47:39;;;;;;;14.45;7.28;;;;;;;;;;5036085;28;20553;-70
2022/07/28 09:50:06;;;;;;;17.70;7.15;;;;;;;;;;5035378;28;20025;-74
2022/07/28 09:52:34;;;;;;;12.52;6.85;;;;;;;;;;5017166;28;20045;-79
2022/07/28 09:55:00;;;;;;;16.67;6.93;;;;;;;;;;5033305;28;20022;-78
2022/07/28 09:57:27;;;;;;;16.17;7.03;;;;;;;;;;5035069;28;20145;-79
2022/07/28 09:59:54;;;;;;;15.18;7.63;;;;;;;;;;5032822;28;20049;-77
2022/07/28 10:02:27;;;;;;;15.27;7.40;;;;;;;;;;5034382;28;20037;-68
2022/07/28 10:04:53;;;;;;;17.55;7.00;;;;;;;;;;5039564;28;20021;-76
2022/07/28 10:07:19;;;;;;;10.75;6.35;;;;;;;;;;5016041;28;20037;-79
2022/07/28 10:10:16;;;;;;;21.42;7.13;;;;;;;;;;5038723;28;20480;-74
2022/07/28 10:12:42;;;;;;;13.00;6.53;;;;;;;;;;4958973;28;20055;-69
2022/07/28 10:18:05;;;;;;;11.65;6.75;;;;;;;;;;4959807;28;20154;-73
2022/07/28 10:20:32;;;;;;;12.95;6.15;;;;;;;;;;4953948;28;20031;-72
2022/07/28 10:23:02;;;;;;;17.90;6.63;;;;;;;;;;4954545;28;20031;-71
2022/07/28 10:25:30;;;;;;;14.25;6.60;;;;;;;;;;4953171;28;20043;-72
2022/07/28 10:27:57;;;;;;;13.00;6.65;;;;;;;;;;4952286;28;20090;-73
2022/07/28 10:30:23;;;;;;;15.40;6.95;;;;;;;;;;4953058;29;20035;-83
2022/07/28 10:32:52;;;;;;;14.85;6.70;;;;;;;;;;4966221;28;20042;-83
2022/07/28 10:35:18;;;;;;;11.00;6.03;;;;;;;;;;4953949;28;20039;-78
2022/07/28 10:37:58;;;;;;;17.90;6.32;;;;;;;;;;4966791;28;20047;-80
2022/07/28 10:40:29;;;;;;;18.42;6.05;;;;;;;;;;4972274;28;20481;-77
2022/07/28 10:42:55;;;;;;;16.52;5.97;;;;;;;;;;4971554;28;20043;-75
2022/07/28 10:45:22;;;;;;;16.77;6.70;;;;;;;;;;4972743;28;20034;-78
2022/07/28 10:47:48;;;;;;;10.63;6.00;;;;;;;;;;4973272;28;20051;-78
2022/07/28 10:50:15;;;;;;;13.75;6.20;;;;;;;;;;5035401;28;20054;-77
2022/07/28 10:52:41;;;;;;;15.55;6.65;;;;;;;;;;5032274;28;20025;-76
2022/07/28 10:55:07;;;;;;;12.23;6.63;;;;;;;;;;5038553;28;20537;-79
2022/07/28 10:57:38;;;;;;;13.38;6.38;;;;;;;;;;5032984;28;20029;-85
2022/07/28 11:00:16;;;;;;;13.93;6.28;;;;;;;;;;5032518;28;20415;-79
2022/07/28 11:02:46;;;;;;;10.90;6.60;;;;;;;;;;5026463;28;20049;-80
2022/07/28 11:05:31;;;;;;;13.10;6.30;;;;;;;;;;5037303;28;20029;-77
2022/07/28 11:08:00;;;;;;;12.18;6.85;;;;;;;;;;5047729;28;20045;-76
2022/07/28 11:10:26;;;;;;;15.90;6.72;;;;;;;;;;5033135;28;20017;-77
2022/07/28 11:13:04;;;;;;;16.25;6.45;;;;;;;;;;5033085;28;20048;-71
2022/07/28 11:15:35;;;;;;;14.40;5.80;;;;;;;;;;5031031;28;20379;-74
2022/07/28 11:18:01;;;;;;;13.90;5.18;;;;;;;;;;5042453;28;20495;-79
2022/07/28 11:20:59;;;;;;;13.07;5.68;;;;;;;;;;5034374;28;20036;-77
2022/07/28 11:23:53;;;;;;;13.55;5.32;;;;;;;;;;4971155;28;20062;-75
2022/07/28 11:26:20;;;;;;;11.75;5.35;;;;;;;;;;4991395;28;20046;-72
2022/07/28 11:29:07;;;;;;;11.73;5.70;;;;;;;;;;4986704;28;20591;-74
2022/07/28 11:31:45;;;;;;;9.23;5.35;;;;;;;;;;4974324;28;20030;-80
2022/07/28 11:34:36;;;;;;;12.50;5.30;;;;;;;;;;4991000;28;20105;-73
2022/07/28 11:37:10;;;;;;;11.85;5.35;;;;;;;;;;4984957;28;20054;-69
2022/07/28 11:39:40;;;;;;;14.77;5.47;;;;;;;;;;4971402;28;20042;-71
2022/07/28 11:42:26;;;;;;;15.23;4.88;;;;;;;;;;4990818;28;20084;-85
2022/07/28 11:44:53;;;;;;;17.95;5.68;;;;;;;;;;4987791;28;20034;-77
2022/07/28 11:47:20;;;;;;;18.23;9.20;;;;;;;;;;4990752;28;20554;-75
2022/07/28 11:50:07;;;;;;;13.85;5.30;;;;;;;;;;4991793;28;20105;-71
2022/07/28 11:52:33;;;;;;;13.85;5.05;;;;;;;;;;4971037;28;20047;-70
2022/07/28 11:54:59;;;;;;;13.60;4.80;;;;;;;;;;4969648;28;20558;-77
2022/07/28 11:57:26;;;;;;;16.25;4.85;;;;;;;;;;4970489;28;20046;-75
2022/07/28 11:59:53;;;;;;;9.27;4.70;;;;;;;;;;5005037;28;20041;-73
2022/07/28 12:02:24;;;;;;;10.93;4.90;;;;;;;;;;5009532;28;20096;-70
2022/07/28 12:04:57;;;;;;;8.70;4.65;;;;;;;;;;5008745;28;20038;-70
2022/07/28 12:07:27;;;;;;;9.00;4.60;;;;;;;;;;5009462;28;20042;-70
2022/07/28 12:09:54;;;;;;;19.25;5.50;;;;;;;;;;4991322;28;20550;-72
2022/07/28 12:12:20;;;;;;;7.97;4.28;;;;;;;;;;5009951;28;20064;-86
2022/07/28 12:14:46;;;;;;;13.63;4.72;;;;;;;;;;5008413;28;20033;-76
2022/07/28 12:17:13;;;;;;;9.77;4.63;;;;;;;;;;5006775;28;20038;-76
2022/07/28 12:19:39;;;;;;;11.07;5.25;;;;;;;;;;5010590;28;20105;-74
2022/07/28 12:22:10;;;;;;;13.52;4.30;;;;;;;;;;5009413;28;20025;-69
2022/07/28 12:24:36;;;;;;;16.63;4.75;;;;;;;;;;5007065;28;20171;-71
2022/07/28 12:27:03;;;;;;;7.88;4.55;;;;;;;;;;5008917;28;20029;-68
2022/07/28 12:29:30;;;;;;;12.15;4.03;;;;;;;;;;5018629;28;20064;-73
2022/07/28 12:32:07;;;;;;;10.73;3.97;;;;;;;;;;5033173;28;20372;-79
2022/07/28 12:34:34;;;;;;;13.52;4.20;;;;;;;;;;5029597;28;20403;-75
2022/07/28 12:37:02;;;;;;;6.95;3.60;;;;;;;;;;5028844;28;20049;-79
2022/07/28 12:39:29;;;;;;;6.43;3.58;;;;;;;;;;5011957;28;20042;-76
2022/07/28 12:42:02;;;;;;;9.23;4.10;;;;;;;;;;5014655;28;20523;-73
2022/07/28 12:44:28;;;;;;;;;;;;;;;;;;5010108;28;20034;-74
2022/07/28 12:46:54;;;;;;;6.30;3.42;;;;;;;;;;5014195;28;19927;-70
2022/07/28 12:49:22;;;;;;;5.32;3.40;;;;;;;;;;5007857;28;20057;-70
2022/07/28 12:51:48;;;;;;;7.97;3.00;;;;;;;;;;5015274;28;20506;-71
2022/07/28 12:54:14;;;;;;;6.88;3.35;;;;;;;;;;5009878;28;20026;-76
2022/07/28 12:56:51;;;;;;;6.38;3.30;;;;;;;;;;5008724;28;20022;-74
2022/07/28 12:59:18;;;;;;;5.68;2.92;;;;;;;;;;5013630;28;20030;-69
2022/07/28 13:01:47;;;;;;;6.47;3.10;;;;;;;;;;4997288;28;20036;-72
2022/07/28 13:04:32;;;;;;;5.40;3.30;;;;;;;;;;5009348;28;20121;-70
2022/07/28 13:06:58;;;;;;;5.38;2.88;;;;;;;;;;4990421;28;20400;-74
2022/07/28 13:09:24;;;;;;;11.70;3.30;;;;;;;;;;5011994;28;20340;-75
2022/07/28 13:11:51;;;;;;;6.18;3.00;;;;;;;;;;5010847;28;20394;-72
2022/07/28 13:14:17;;;;;;;4.22;3.25;;;;;;;;;;5011802;28;20253;-75
2022/07/28 13:16:56;;;;;;;7.07;2.95;;;;;;;;;;5009090;28;20060;-72
2022/07/28 13:19:22;;;;;;;9.40;3.20;;;;;;;;;;5012833;28;20072;-74
2022/07/28 13:21:54;;;;;;;4.50;3.10;;;;;;;;;;5012657;28;20432;-73
2022/07/28 13:24:20;;;;;;;4.65;2.70;;;;;;;;;;5014554;28;20086;-80
2022/07/28 13:26:46;;;;;;;9.63;3.30;;;;;;;;;;5015922;28;20056;-74
2022/07/28 13:29:13;;;;;;;5.47;3.15;;;;;;;;;;5010946;28;20060;-81
2022/07/28 13:31:39;;;;;;;5.05;2.97;;;;;;;;;;5017715;28;20036;-77
2022/07/28 13:34:07;;;;;;;8.90;3.38;;;;;;;;;;5014484;28;20365;-81
2022/07/28 13:36:34;;;;;;;7.88;3.33;;;;;;;;;;5014829;28;20041;-73
2022/07/28 13:39:01;;;;;;;5.38;2.92;;;;;;;;;;5010934;28;20514;-74
2022/07/28 13:41:27;;;;;;;8.35;3.30;;;;;;;;;;5017009;28;20451;-74
2022/07/28 13:43:57;;;;;;;9.95;3.13;;;;;;;;;;4995935;28;20032;-71
2022/07/28 13:46:23;;;;;;;5.05;3.08;;;;;;;;;;4994694;28;20033;-79
2022/07/28 13:48:50;;;;;;;4.13;2.85;;;;;;;;;;5016432;28;20034;-76
2022/07/28 13:51:16;;;;;;;9.32;2.97;;;;;;;;;;5017630;28;20084;-72
2022/07/28 13:53:42;;;;;;;4.72;2.88;;;;;;;;;;5010466;28;20110;-73
2022/07/28 13:56:08;;;;;;;3.83;2.90;;;;;;;;;;5013949;28;20032;-72
2022/07/28 13:58:37;;;;;;;8.52;3.83;;;;;;;;;;5013020;28;20026;-69
2022/07/28 14:01:12;;;;;;;6.78;3.25;;;;;;;;;;4994199;28;20122;-69
2022/07/28 14:03:41;;;;;;;5.88;3.05;;;;;;;;;;5014621;28;20026;-70
2022/07/28 14:06:11;;;;;;;8.93;3.00;;;;;;;;;;5001127;28;20022;-69
2022/07/28 14:08:40;;;;;;;8.30;2.97;;;;;;;;;;5015020;28;20088;-69
2022/07/28 14:11:06;;;;;;;6.32;2.80;;;;;;;;;;4997053;28;20062;-70
2022/07/28 14:13:41;;;;;;;5.65;2.97;;;;;;;;;;5013940;28;20024;-70
2022/07/28 14:16:11;;;;;;;6.07;2.80;;;;;;;;;;4997210;28;20030;-69
2022/07/28 14:21:44;;;;;;;8.25;3.00;;;;;;;;;;5012080;28;20088;-70
2022/07/28 14:24:10;;;;;;;8.05;2.92;;;;;;;;;;5015323;28;20134;-70
2022/07/28 14:27:02;;;;;;;;;;;;;;;;;;;;;
2022/07/28 14:29:28;;;;;;;4.03;2.97;;;;;;;;;;5014950;28;20045;-69
2022/07/28 14:32:00;;;;;;;7.32;3.05;;;;;;;;;;5012461;28;20037;-69
2022/07/28 14:34:26;;;;;;;5.60;2.63;;;;;;;;;;5013207;28;20034;-69
2022/07/28 14:36:52;;;;;;;5.80;3.05;;;;;;;;;;5014251;28;20034;-70
2022/07/28 14:39:18;;;;;;;7.05;3.10;;;;;;;;;;5042077;28;20080;-74
2022/07/28 14:41:44;;;;;;;4.40;3.00;;;;;;;;;;5034382;28;20924;-75
2022/07/28 14:44:11;;;;;;;4.78;3.17;;;;;;;;;;5032298;28;20025;-73
2022/07/28 14:46:37;;;;;;;8.02;3.15;;;;;;;;;;5033579;28;20040;-74
2022/07/28 14:49:03;;;;;;;9.68;3.22;;;;;;;;;;5032820;28;20057;-72
2022/07/28 14:51:29;;;;;;;4.75;3.10;;;;;;;;;;5033325;28;20025;-80
2022/07/28 14:53:56;;;;;;;6.60;3.30;;;;;;;;;;5033844;28;20033;-81